sensor_id;sensor_type;location;lat;lon;timestamp;temperature;humidity
26947;DHT22;14501;52.282;10.560;2022-11-27T00:00:43;2.30;99.90
26947;DHT22;14501;52.282;10.560;2022-11-27T00:03:09;2.10;99.90
26947;DHT22;14501;52.282;10.560;2022-11-27T00:05:35;2.10;99.90
26947;DHT22;14501;52.282;10.560;2022-11-27T00:08:00;2.00;99.90
26947;DHT22;14501;52.282;10.560;2022-11-27T00:10:26;2.00;99.90
26947;DHT22;14501;52.282;10.560;2022-11-27T00:12:52;1.90;99.90
26947;DHT22;14501;52.282;10.560;2022-11-27T00:15:17;1.90;99.90
26947;DHT22;14501;52.282;10.560;2022-11-27T00:17:43;1.90;99.90
26947;DHT22;14501;52.282;10.560;2022-11-27T00:20:09;1.80;99.90
26947;DHT22;14501;52.282;10.560;2022-11-27T00:22:35;1.90;99.90
26947;DHT22;14501;52.282;10.560;2022-11-27T00:25:01;1.90;99.90
26947;DHT22;14501;52.282;10.560;2022-11-27T00:27:26;1.80;99.90
26947;DHT22;14501;52.282;10.560;2022-11-27T00:29:52;1.70;99.90
26947;DHT22;14501;52.282;10.560;2022-11-27T00:32:18;1.70;99.90
26947;DHT22;14501;52.282;10.560;2022-11-27T00:34:43;1.70;99.90
26947;DHT22;14501;52.282;10.560;2022-11-27T00:37:09;1.70;99.90
26947;DHT22;14501;52.282;10.560;2022-11-27T00:39:35;1.70;99.90
26947;DHT22;14501;52.282;10.560;2022-11-27T00:42:00;1.70;99.90
26947;DHT22;14501;52.282;10.560;2022-11-27T00:44:26;1.50;99.90
26947;DHT22;14501;52.282;10.560;2022-11-27T00:46:51;1.50;99.90
26947;DHT22;14501;52.282;10.560;2022-11-27T00:49:17;1.50;99.90
26947;DHT22;14501;52.282;10.560;2022-11-27T00:51:43;1.50;99.90
26947;DHT22;14501;52.282;10.560;2022-11-27T00:54:08;1.40;99.90
26947;DHT22;14501;52.282;10.560;2022-11-27T00:56:37;1.40;99.90
26947;DHT22;14501;52.282;10.560;2022-11-27T00:59:05;1.40;99.90
26947;DHT22;14501;52.282;10.560;2022-11-27T01:01:33;1.30;99.90
26947;DHT22;14501;52.282;10.560;2022-11-27T01:04:00;1.30;99.90
26947;DHT22;14501;52.282;10.560;2022-11-27T01:06:27;1.30;99.90
26947;DHT22;14501;52.282;10.560;2022-11-27T01:08:53;1.30;99.90
26947;DHT22;14501;52.282;10.560;2022-11-27T01:11:25;1.20;99.90
26947;DHT22;14501;52.282;10.560;2022-11-27T01:13:51;1.20;99.90
26947;DHT22;14501;52.282;10.560;2022-11-27T01:16:20;1.30;99.90
26947;DHT22;14501;52.282;10.560;2022-11-27T01:18:48;1.20;99.90
26947;DHT22;14501;52.282;10.560;2022-11-27T01:21:15;1.20;99.90
26947;DHT22;14501;52.282;10.560;2022-11-27T01:23:41;1.20;99.90
26947;DHT22;14501;52.282;10.560;2022-11-27T01:26:09;1.20;99.90
26947;DHT22;14501;52.282;10.560;2022-11-27T01:28:35;1.20;99.90
26947;DHT22;14501;52.282;10.560;2022-11-27T01:31:28;1.20;99.90
26947;DHT22;14501;52.282;10.560;2022-11-27T01:33:57;1.10;99.90
26947;DHT22;14501;52.282;10.560;2022-11-27T01:36:23;1.10;99.90
26947;DHT22;14501;52.282;10.560;2022-11-27T01:38:49;1.10;99.90
26947;DHT22;14501;52.282;10.560;2022-11-27T01:41:28;1.10;99.90
26947;DHT22;14501;52.282;10.560;2022-11-27T01:44:41;1.20;99.90
26947;DHT22;14501;52.282;10.560;2022-11-27T01:46:59;1.20;99.90
26947;DHT22;14501;52.282;10.560;2022-11-27T01:49:35;1.20;99.90
26947;DHT22;14501;52.282;10.560;2022-11-27T01:52:12;1.10;99.90
26947;DHT22;14501;52.282;10.560;2022-11-27T01:54:44;1.10;99.90
26947;DHT22;14501;52.282;10.560;2022-11-27T01:57:15;1.10;99.90
26947;DHT22;14501;52.282;10.560;2022-11-27T01:59:43;1.10;99.90
26947;DHT22;14501;52.282;10.560;2022-11-27T02:02:09;1.10;99.90
26947;DHT22;14501;52.282;10.560;2022-11-27T02:04:35;1.10;99.90
26947;DHT22;14501;52.282;10.560;2022-11-27T02:07:01;1.00;99.90
26947;DHT22;14501;52.282;10.560;2022-11-27T02:09:28;1.00;99.90
26947;DHT22;14501;52.282;10.560;2022-11-27T02:15:23;1.00;99.90
26947;DHT22;14501;52.282;10.560;2022-11-27T02:26:21;1.20;99.90
26947;DHT22;14501;52.282;10.560;2022-11-27T02:34:11;1.10;99.90
26947;DHT22;14501;52.282;10.560;2022-11-27T02:36:43;1.10;99.90
26947;DHT22;14501;52.282;10.560;2022-11-27T02:39:15;1.00;99.90
26947;DHT22;14501;52.282;10.560;2022-11-27T02:42:06;0.90;99.90
26947;DHT22;14501;52.282;10.560;2022-11-27T02:44:35;0.90;99.90
26947;DHT22;14501;52.282;10.560;2022-11-27T02:47:03;0.80;99.90
26947;DHT22;14501;52.282;10.560;2022-11-27T02:49:29;0.80;99.90
26947;DHT22;14501;52.282;10.560;2022-11-27T02:51:58;0.70;99.90
26947;DHT22;14501;52.282;10.560;2022-11-27T02:54:29;0.80;99.90
26947;DHT22;14501;52.282;10.560;2022-11-27T02:56:58;0.70;99.90
26947;DHT22;14501;52.282;10.560;2022-11-27T02:59:28;0.70;99.90
26947;DHT22;14501;52.282;10.560;2022-11-27T03:02:01;0.60;99.90
26947;DHT22;14501;52.282;10.560;2022-11-27T03:04:36;0.60;99.90
26947;DHT22;14501;52.282;10.560;2022-11-27T03:07:08;0.60;99.90
26947;DHT22;14501;52.282;10.560;2022-11-27T03:09:41;0.50;99.90
26947;DHT22;14501;52.282;10.560;2022-11-27T03:12:09;0.80;99.90
26947;DHT22;14501;52.282;10.560;2022-11-27T03:14:37;0.70;99.90
26947;DHT22;14501;52.282;10.560;2022-11-27T03:20:10;0.70;99.90
26947;DHT22;14501;52.282;10.560;2022-11-27T03:22:36;0.80;99.90
26947;DHT22;14501;52.282;10.560;2022-11-27T03:25:02;0.90;99.90
26947;DHT22;14501;52.282;10.560;2022-11-27T03:27:53;0.90;99.90
26947;DHT22;14501;52.282;10.560;2022-11-27T03:30:20;0.90;99.90
26947;DHT22;14501;52.282;10.560;2022-11-27T03:32:46;0.90;99.90
26947;DHT22;14501;52.282;10.560;2022-11-27T03:35:15;1.00;99.90
26947;DHT22;14501;52.282;10.560;2022-11-27T03:37:42;1.10;99.90
26947;DHT22;14501;52.282;10.560;2022-11-27T03:40:08;1.00;99.90
26947;DHT22;14501;52.282;10.560;2022-11-27T03:48:32;1.00;99.90
26947;DHT22;14501;52.282;10.560;2022-11-27T03:59:22;0.90;99.90
26947;DHT22;14501;52.282;10.560;2022-11-27T04:01:48;0.90;99.90
26947;DHT22;14501;52.282;10.560;2022-11-27T04:04:14;0.80;99.90
26947;DHT22;14501;52.282;10.560;2022-11-27T04:06:40;0.80;99.90
26947;DHT22;14501;52.282;10.560;2022-11-27T04:09:05;0.90;99.90
26947;DHT22;14501;52.282;10.560;2022-11-27T04:11:31;0.80;99.90
26947;DHT22;14501;52.282;10.560;2022-11-27T04:13:57;0.80;99.90
26947;DHT22;14501;52.282;10.560;2022-11-27T04:16:22;0.80;99.90
26947;DHT22;14501;52.282;10.560;2022-11-27T04:18:48;0.80;99.90
26947;DHT22;14501;52.282;10.560;2022-11-27T04:21:14;0.80;99.90
26947;DHT22;14501;52.282;10.560;2022-11-27T04:23:41;0.80;99.90
26947;DHT22;14501;52.282;10.560;2022-11-27T04:26:07;0.80;99.90
26947;DHT22;14501;52.282;10.560;2022-11-27T04:28:33;0.80;99.90
26947;DHT22;14501;52.282;10.560;2022-11-27T04:30:59;0.80;99.90
26947;DHT22;14501;52.282;10.560;2022-11-27T04:33:24;0.70;99.90
26947;DHT22;14501;52.282;10.560;2022-11-27T04:35:50;0.80;99.90
26947;DHT22;14501;52.282;10.560;2022-11-27T04:38:17;0.80;99.90
26947;DHT22;14501;52.282;10.560;2022-11-27T04:40:42;0.70;99.90
26947;DHT22;14501;52.282;10.560;2022-11-27T04:43:08;0.70;99.90
26947;DHT22;14501;52.282;10.560;2022-11-27T04:45:34;0.70;99.90
26947;DHT22;14501;52.282;10.560;2022-11-27T04:48:00;0.70;99.90
26947;DHT22;14501;52.282;10.560;2022-11-27T04:50:26;0.60;99.90
26947;DHT22;14501;52.282;10.560;2022-11-27T04:52:51;0.50;99.90
26947;DHT22;14501;52.282;10.560;2022-11-27T04:55:17;0.50;99.90
26947;DHT22;14501;52.282;10.560;2022-11-27T04:57:43;0.50;99.90
26947;DHT22;14501;52.282;10.560;2022-11-27T05:00:11;0.40;99.90
26947;DHT22;14501;52.282;10.560;2022-11-27T05:02:37;0.40;99.90
26947;DHT22;14501;52.282;10.560;2022-11-27T05:05:03;0.30;99.90
26947;DHT22;14501;52.282;10.560;2022-11-27T05:07:29;0.30;99.90
26947;DHT22;14501;52.282;10.560;2022-11-27T05:09:54;0.20;99.90
26947;DHT22;14501;52.282;10.560;2022-11-27T05:12:20;0.10;99.90
26947;DHT22;14501;52.282;10.560;2022-11-27T05:14:45;0.10;99.90
26947;DHT22;14501;52.282;10.560;2022-11-27T05:17:11;0.10;99.90
26947;DHT22;14501;52.282;10.560;2022-11-27T05:19:37;0.10;99.90
26947;DHT22;14501;52.282;10.560;2022-11-27T05:22:02;0.00;99.90
26947;DHT22;14501;52.282;10.560;2022-11-27T05:24:28;-0.10;99.90
26947;DHT22;14501;52.282;10.560;2022-11-27T05:26:55;-0.10;99.90
26947;DHT22;14501;52.282;10.560;2022-11-27T05:29:22;-0.20;99.90
26947;DHT22;14501;52.282;10.560;2022-11-27T05:31:48;-0.20;99.90
26947;DHT22;14501;52.282;10.560;2022-11-27T05:34:14;-0.30;99.90
26947;DHT22;14501;52.282;10.560;2022-11-27T05:36:40;-0.20;99.90
26947;DHT22;14501;52.282;10.560;2022-11-27T05:39:07;-0.20;99.90
26947;DHT22;14501;52.282;10.560;2022-11-27T05:41:35;-0.10;99.90
26947;DHT22;14501;52.282;10.560;2022-11-27T05:44:01;-0.20;99.90
26947;DHT22;14501;52.282;10.560;2022-11-27T05:46:27;0.40;99.90
26947;DHT22;14501;52.282;10.560;2022-11-27T05:48:53;-0.30;99.90
26947;DHT22;14501;52.282;10.560;2022-11-27T05:51:18;-0.30;99.90
26947;DHT22;14501;52.282;10.560;2022-11-27T05:53:44;-0.20;99.90
26947;DHT22;14501;52.282;10.560;2022-11-27T05:56:15;-0.10;99.90
26947;DHT22;14501;52.282;10.560;2022-11-27T05:58:42;0.10;99.90
26947;DHT22;14501;52.282;10.560;2022-11-27T06:01:09;0.10;99.90
26947;DHT22;14501;52.282;10.560;2022-11-27T06:03:35;0.20;99.90
26947;DHT22;14501;52.282;10.560;2022-11-27T06:06:12;0.20;99.90
26947;DHT22;14501;52.282;10.560;2022-11-27T06:08:38;0.30;99.90
26947;DHT22;14501;52.282;10.560;2022-11-27T06:11:09;0.40;99.90
26947;DHT22;14501;52.282;10.560;2022-11-27T06:13:35;0.40;99.90
26947;DHT22;14501;52.282;10.560;2022-11-27T06:16:11;0.50;99.90
26947;DHT22;14501;52.282;10.560;2022-11-27T06:18:37;0.50;99.90
26947;DHT22;14501;52.282;10.560;2022-11-27T06:21:11;0.50;99.90
26947;DHT22;14501;52.282;10.560;2022-11-27T06:23:37;0.50;99.90
26947;DHT22;14501;52.282;10.560;2022-11-27T06:26:14;0.50;99.90
26947;DHT22;14501;52.282;10.560;2022-11-27T06:28:41;0.50;99.90
26947;DHT22;14501;52.282;10.560;2022-11-27T06:31:08;0.40;99.90
26947;DHT22;14501;52.282;10.560;2022-11-27T06:33:34;0.40;99.90
26947;DHT22;14501;52.282;10.560;2022-11-27T06:36:01;0.40;99.90
26947;DHT22;14501;52.282;10.560;2022-11-27T06:38:27;0.30;99.90
26947;DHT22;14501;52.282;10.560;2022-11-27T06:40:52;0.30;99.90
26947;DHT22;14501;52.282;10.560;2022-11-27T06:43:18;0.30;99.90
26947;DHT22;14501;52.282;10.560;2022-11-27T06:45:50;0.30;99.90
26947;DHT22;14501;52.282;10.560;2022-11-27T06:48:18;0.20;99.90
26947;DHT22;14501;52.282;10.560;2022-11-27T06:50:44;0.20;99.90
26947;DHT22;14501;52.282;10.560;2022-11-27T06:53:09;0.20;99.90
26947;DHT22;14501;52.282;10.560;2022-11-27T06:55:37;0.20;99.90
26947;DHT22;14501;52.282;10.560;2022-11-27T06:58:02;0.20;99.90
26947;DHT22;14501;52.282;10.560;2022-11-27T07:00:28;0.10;99.90
26947;DHT22;14501;52.282;10.560;2022-11-27T07:02:54;0.10;99.90
26947;DHT22;14501;52.282;10.560;2022-11-27T07:05:20;0.10;99.90
26947;DHT22;14501;52.282;10.560;2022-11-27T07:07:46;0.10;99.90
26947;DHT22;14501;52.282;10.560;2022-11-27T07:10:11;0.10;99.90
26947;DHT22;14501;52.282;10.560;2022-11-27T07:12:37;0.10;99.90
26947;DHT22;14501;52.282;10.560;2022-11-27T07:15:03;0.10;99.90
26947;DHT22;14501;52.282;10.560;2022-11-27T07:17:28;0.10;99.90
26947;DHT22;14501;52.282;10.560;2022-11-27T07:19:54;0.20;99.90
26947;DHT22;14501;52.282;10.560;2022-11-27T07:22:20;0.20;99.90
26947;DHT22;14501;52.282;10.560;2022-11-27T07:24:45;0.20;99.90
26947;DHT22;14501;52.282;10.560;2022-11-27T07:27:11;0.30;99.90
26947;DHT22;14501;52.282;10.560;2022-11-27T07:29:36;0.40;99.90
26947;DHT22;14501;52.282;10.560;2022-11-27T07:32:02;0.40;99.90
26947;DHT22;14501;52.282;10.560;2022-11-27T07:34:28;0.50;99.90
26947;DHT22;14501;52.282;10.560;2022-11-27T07:36:53;0.50;99.90
26947;DHT22;14501;52.282;10.560;2022-11-27T07:39:19;0.60;99.90
26947;DHT22;14501;52.282;10.560;2022-11-27T07:41:44;0.60;99.90
26947;DHT22;14501;52.282;10.560;2022-11-27T07:44:10;0.60;99.90
26947;DHT22;14501;52.282;10.560;2022-11-27T07:46:36;0.70;99.90
26947;DHT22;14501;52.282;10.560;2022-11-27T07:49:01;0.70;99.90
26947;DHT22;14501;52.282;10.560;2022-11-27T07:51:28;0.70;99.90
26947;DHT22;14501;52.282;10.560;2022-11-27T07:53:54;0.80;99.90
26947;DHT22;14501;52.282;10.560;2022-11-27T07:56:20;0.80;99.90
26947;DHT22;14501;52.282;10.560;2022-11-27T07:58:46;0.90;99.90
26947;DHT22;14501;52.282;10.560;2022-11-27T08:01:16;1.20;99.90
26947;DHT22;14501;52.282;10.560;2022-11-27T08:03:42;1.80;99.90
26947;DHT22;14501;52.282;10.560;2022-11-27T08:06:15;2.40;99.90
26947;DHT22;14501;52.282;10.560;2022-11-27T08:08:41;2.90;99.90
26947;DHT22;14501;52.282;10.560;2022-11-27T08:11:14;3.20;99.90
26947;DHT22;14501;52.282;10.560;2022-11-27T08:13:40;3.40;99.90
26947;DHT22;14501;52.282;10.560;2022-11-27T08:16:06;3.40;99.90
26947;DHT22;14501;52.282;10.560;2022-11-27T08:18:32;3.40;99.90
26947;DHT22;14501;52.282;10.560;2022-11-27T08:20:59;3.50;99.90
26947;DHT22;14501;52.282;10.560;2022-11-27T08:23:25;3.70;99.90
26947;DHT22;14501;52.282;10.560;2022-11-27T08:25:50;3.80;99.90
26947;DHT22;14501;52.282;10.560;2022-11-27T08:28:16;4.20;99.90
26947;DHT22;14501;52.282;10.560;2022-11-27T08:30:41;4.30;99.90
26947;DHT22;14501;52.282;10.560;2022-11-27T08:33:07;4.50;99.90
26947;DHT22;14501;52.282;10.560;2022-11-27T08:35:34;4.80;99.90
26947;DHT22;14501;52.282;10.560;2022-11-27T08:38:00;5.30;99.90
26947;DHT22;14501;52.282;10.560;2022-11-27T08:40:26;5.30;99.90
26947;DHT22;14501;52.282;10.560;2022-11-27T08:42:51;5.60;99.90
26947;DHT22;14501;52.282;10.560;2022-11-27T08:45:17;6.00;99.90
26947;DHT22;14501;52.282;10.560;2022-11-27T08:47:43;7.50;99.90
26947;DHT22;14501;52.282;10.560;2022-11-27T08:50:09;7.20;99.90
26947;DHT22;14501;52.282;10.560;2022-11-27T08:52:35;8.00;99.90
26947;DHT22;14501;52.282;10.560;2022-11-27T08:55:00;8.70;99.90
26947;DHT22;14501;52.282;10.560;2022-11-27T08:57:26;9.10;99.90
26947;DHT22;14501;52.282;10.560;2022-11-27T08:59:52;9.30;99.90
26947;DHT22;14501;52.282;10.560;2022-11-27T09:04:43;10.40;99.90
26947;DHT22;14501;52.282;10.560;2022-11-27T09:07:09;11.10;99.90
26947;DHT22;14501;52.282;10.560;2022-11-27T09:09:38;12.10;99.90
26947;DHT22;14501;52.282;10.560;2022-11-27T09:14:31;13.40;99.90
26947;DHT22;14501;52.282;10.560;2022-11-27T09:16:57;14.60;99.90
26947;DHT22;14501;52.282;10.560;2022-11-27T09:19:22;14.30;99.90
26947;DHT22;14501;52.282;10.560;2022-11-27T09:21:49;14.10;99.90
26947;DHT22;14501;52.282;10.560;2022-11-27T09:24:15;13.30;99.90
26947;DHT22;14501;52.282;10.560;2022-11-27T09:26:40;12.30;99.90
26947;DHT22;14501;52.282;10.560;2022-11-27T09:29:06;11.60;99.90
26947;DHT22;14501;52.282;10.560;2022-11-27T09:31:32;11.70;99.90
26947;DHT22;14501;52.282;10.560;2022-11-27T09:36:24;13.10;99.90
26947;DHT22;14501;52.282;10.560;2022-11-27T09:38:50;12.80;99.90
26947;DHT22;14501;52.282;10.560;2022-11-27T09:46:42;10.40;99.90
26947;DHT22;14501;52.282;10.560;2022-11-27T09:49:13;10.50;99.90
26947;DHT22;14501;52.282;10.560;2022-11-27T09:51:48;9.30;99.90
26947;DHT22;14501;52.282;10.560;2022-11-27T09:54:33;8.50;99.90
26947;DHT22;14501;52.282;10.560;2022-11-27T09:57:01;8.00;99.90
26947;DHT22;14501;52.282;10.560;2022-11-27T10:00:05;7.40;99.90
26947;DHT22;14501;52.282;10.560;2022-11-27T10:02:27;6.70;99.90
26947;DHT22;14501;52.282;10.560;2022-11-27T10:04:53;7.30;99.90
26947;DHT22;14501;52.282;10.560;2022-11-27T10:07:51;6.60;99.90
26947;DHT22;14501;52.282;10.560;2022-11-27T10:11:04;6.50;99.90
26947;DHT22;14501;52.282;10.560;2022-11-27T10:16:12;6.40;99.90
26947;DHT22;14501;52.282;10.560;2022-11-27T10:18:54;6.30;99.90
26947;DHT22;14501;52.282;10.560;2022-11-27T10:24:41;6.60;99.90
26947;DHT22;14501;52.282;10.560;2022-11-27T10:27:21;6.70;99.90
26947;DHT22;14501;52.282;10.560;2022-11-27T10:29:51;6.90;99.90
26947;DHT22;14501;52.282;10.560;2022-11-27T10:32:21;7.10;99.90
26947;DHT22;14501;52.282;10.560;2022-11-27T10:35:12;7.30;99.90
26947;DHT22;14501;52.282;10.560;2022-11-27T10:37:46;7.30;99.90
26947;DHT22;14501;52.282;10.560;2022-11-27T10:45:37;7.60;99.90
26947;DHT22;14501;52.282;10.560;2022-11-27T10:48:04;7.70;99.90
26947;DHT22;14501;52.282;10.560;2022-11-27T10:50:30;7.80;99.90
26947;DHT22;14501;52.282;10.560;2022-11-27T10:58:26;8.00;99.90
26947;DHT22;14501;52.282;10.560;2022-11-27T11:01:16;7.90;99.90
26947;DHT22;14501;52.282;10.560;2022-11-27T11:03:42;8.10;99.90
26947;DHT22;14501;52.282;10.560;2022-11-27T11:06:28;8.10;99.90
26947;DHT22;14501;52.282;10.560;2022-11-27T11:09:18;8.20;99.90
26947;DHT22;14501;52.282;10.560;2022-11-27T11:11:45;8.20;99.90
26947;DHT22;14501;52.282;10.560;2022-11-27T11:14:19;8.10;99.90
26947;DHT22;14501;52.282;10.560;2022-11-27T11:16:47;8.20;99.90
26947;DHT22;14501;52.282;10.560;2022-11-27T11:19:33;8.10;99.90
26947;DHT22;14501;52.282;10.560;2022-11-27T11:22:04;8.00;99.90
26947;DHT22;14501;52.282;10.560;2022-11-27T11:24:37;7.90;99.90
26947;DHT22;14501;52.282;10.560;2022-11-27T11:27:28;7.90;99.90
26947;DHT22;14501;52.282;10.560;2022-11-27T11:30:00;7.90;99.90
26947;DHT22;14501;52.282;10.560;2022-11-27T11:32:34;7.80;99.90
26947;DHT22;14501;52.282;10.560;2022-11-27T11:35:33;7.80;99.90
26947;DHT22;14501;52.282;10.560;2022-11-27T11:38:02;7.70;99.90
26947;DHT22;14501;52.282;10.560;2022-11-27T11:40:31;7.70;99.90
26947;DHT22;14501;52.282;10.560;2022-11-27T11:43:17;7.80;99.90
26947;DHT22;14501;52.282;10.560;2022-11-27T11:45:46;7.80;99.90
26947;DHT22;14501;52.282;10.560;2022-11-27T11:48:26;7.90;99.90
26947;DHT22;14501;52.282;10.560;2022-11-27T11:53:39;7.90;99.90
26947;DHT22;14501;52.282;10.560;2022-11-27T12:10:17;8.20;99.90
26947;DHT22;14501;52.282;10.560;2022-11-27T12:21:13;8.50;99.90
26947;DHT22;14501;52.282;10.560;2022-11-27T12:23:48;8.90;99.90
26947;DHT22;14501;52.282;10.560;2022-11-27T12:26:21;9.00;99.90
26947;DHT22;14501;52.282;10.560;2022-11-27T12:29:09;9.10;99.90
26947;DHT22;14501;52.282;10.560;2022-11-27T12:34:32;9.30;99.90
26947;DHT22;14501;52.282;10.560;2022-11-27T12:37:39;9.40;99.90
26947;DHT22;14501;52.282;10.560;2022-11-27T12:45:21;9.20;99.90
26947;DHT22;14501;52.282;10.560;2022-11-27T12:47:57;9.10;99.90
26947;DHT22;14501;52.282;10.560;2022-11-27T12:50:40;9.00;99.90
26947;DHT22;14501;52.282;10.560;2022-11-27T12:55:43;8.80;99.90
26947;DHT22;14501;52.282;10.560;2022-11-27T12:58:25;8.80;99.90
26947;DHT22;14501;52.282;10.560;2022-11-27T13:01:00;8.60;99.90
26947;DHT22;14501;52.282;10.560;2022-11-27T13:03:39;8.50;99.90
26947;DHT22;14501;52.282;10.560;2022-11-27T13:06:13;8.50;99.90
26947;DHT22;14501;52.282;10.560;2022-11-27T13:08:44;10.40;99.90
26947;DHT22;14501;52.282;10.560;2022-11-27T13:11:12;8.50;99.90
26947;DHT22;14501;52.282;10.560;2022-11-27T13:13:43;8.60;99.90
26947;DHT22;14501;52.282;10.560;2022-11-27T13:16:25;10.20;99.90
26947;DHT22;14501;52.282;10.560;2022-11-27T13:18:57;8.60;99.90
26947;DHT22;14501;52.282;10.560;2022-11-27T13:21:28;8.60;99.90
26947;DHT22;14501;52.282;10.560;2022-11-27T13:23:59;8.60;99.90
26947;DHT22;14501;52.282;10.560;2022-11-27T13:26:41;10.70;99.90
26947;DHT22;14501;52.282;10.560;2022-11-27T13:29:26;8.40;99.90
26947;DHT22;14501;52.282;10.560;2022-11-27T13:31:56;8.40;99.90
26947;DHT22;14501;52.282;10.560;2022-11-27T13:34:24;8.40;99.90
26947;DHT22;14501;52.282;10.560;2022-11-27T13:37:01;8.40;99.90
26947;DHT22;14501;52.282;10.560;2022-11-27T13:39:34;8.50;99.90
26947;DHT22;14501;52.282;10.560;2022-11-27T13:42:17;8.50;99.90
26947;DHT22;14501;52.282;10.560;2022-11-27T13:44:52;8.50;99.90
26947;DHT22;14501;52.282;10.560;2022-11-27T13:47:20;9.90;99.90
26947;DHT22;14501;52.282;10.560;2022-11-27T13:50:01;8.70;99.90
26947;DHT22;14501;52.282;10.560;2022-11-27T13:52:28;8.50;99.90
26947;DHT22;14501;52.282;10.560;2022-11-27T13:54:59;8.40;99.90
26947;DHT22;14501;52.282;10.560;2022-11-27T13:57:27;8.40;99.90
26947;DHT22;14501;52.282;10.560;2022-11-27T13:59:57;8.40;99.90
26947;DHT22;14501;52.282;10.560;2022-11-27T14:02:24;8.40;99.90
26947;DHT22;14501;52.282;10.560;2022-11-27T14:04:52;8.40;99.90
26947;DHT22;14501;52.282;10.560;2022-11-27T14:07:18;8.30;99.90
26947;DHT22;14501;52.282;10.560;2022-11-27T14:09:52;8.30;99.90
26947;DHT22;14501;52.282;10.560;2022-11-27T14:12:36;8.30;99.90
26947;DHT22;14501;52.282;10.560;2022-11-27T14:17:44;8.20;99.90
26947;DHT22;14501;52.282;10.560;2022-11-27T14:20:23;8.20;99.90
26947;DHT22;14501;52.282;10.560;2022-11-27T14:22:55;8.10;99.90
26947;DHT22;14501;52.282;10.560;2022-11-27T14:25:33;8.60;99.90
26947;DHT22;14501;52.282;10.560;2022-11-27T14:30:48;7.90;99.90
26947;DHT22;14501;52.282;10.560;2022-11-27T14:33:29;7.80;99.90
26947;DHT22;14501;52.282;10.560;2022-11-27T14:35:57;7.80;99.90
26947;DHT22;14501;52.282;10.560;2022-11-27T14:38:25;7.60;99.90
26947;DHT22;14501;52.282;10.560;2022-11-27T14:40:53;7.60;99.90
26947;DHT22;14501;52.282;10.560;2022-11-27T14:43:22;7.40;99.90
26947;DHT22;14501;52.282;10.560;2022-11-27T14:45:56;7.40;99.90
26947;DHT22;14501;52.282;10.560;2022-11-27T14:48:27;7.40;99.90
26947;DHT22;14501;52.282;10.560;2022-11-27T14:50:55;7.30;99.90
26947;DHT22;14501;52.282;10.560;2022-11-27T14:53:25;7.20;99.90
26947;DHT22;14501;52.282;10.560;2022-11-27T14:55:54;6.90;99.90
26947;DHT22;14501;52.282;10.560;2022-11-27T14:58:25;9.40;99.90
26947;DHT22;14501;52.282;10.560;2022-11-27T15:01:06;8.30;99.90
26947;DHT22;14501;52.282;10.560;2022-11-27T15:03:32;7.10;99.90
26947;DHT22;14501;52.282;10.560;2022-11-27T15:06:04;7.40;99.90
26947;DHT22;14501;52.282;10.560;2022-11-27T15:08:34;7.10;99.90
26947;DHT22;14501;52.282;10.560;2022-11-27T15:11:01;8.60;99.90
26947;DHT22;14501;52.282;10.560;2022-11-27T15:13:35;7.00;99.90
26947;DHT22;14501;52.282;10.560;2022-11-27T15:18:31;7.00;99.90
26947;DHT22;14501;52.282;10.560;2022-11-27T15:20:58;7.00;99.90
26947;DHT22;14501;52.282;10.560;2022-11-27T15:23:29;6.90;99.90
26947;DHT22;14501;52.282;10.560;2022-11-27T15:28:36;7.20;99.90
26947;DHT22;14501;52.282;10.560;2022-11-27T15:31:23;8.70;99.90
26947;DHT22;14501;52.282;10.560;2022-11-27T15:36:42;6.90;99.90
26947;DHT22;14501;52.282;10.560;2022-11-27T15:39:34;6.80;99.90
26947;DHT22;14501;52.282;10.560;2022-11-27T15:42:02;6.90;99.90
26947;DHT22;14501;52.282;10.560;2022-11-27T15:44:30;6.90;99.90
26947;DHT22;14501;52.282;10.560;2022-11-27T15:46:58;6.80;99.90
26947;DHT22;14501;52.282;10.560;2022-11-27T15:49:24;6.80;99.90
26947;DHT22;14501;52.282;10.560;2022-11-27T15:51:50;6.90;99.90
26947;DHT22;14501;52.282;10.560;2022-11-27T15:54:16;6.70;99.90
26947;DHT22;14501;52.282;10.560;2022-11-27T15:56:42;6.70;99.90
26947;DHT22;14501;52.282;10.560;2022-11-27T15:59:08;6.70;99.90
26947;DHT22;14501;52.282;10.560;2022-11-27T16:01:35;6.70;99.90
26947;DHT22;14501;52.282;10.560;2022-11-27T16:04:01;6.70;99.90
26947;DHT22;14501;52.282;10.560;2022-11-27T16:06:27;6.60;99.90
26947;DHT22;14501;52.282;10.560;2022-11-27T16:08:57;6.60;99.90
26947;DHT22;14501;52.282;10.560;2022-11-27T16:11:24;5.90;99.90
26947;DHT22;14501;52.282;10.560;2022-11-27T16:13:50;6.50;99.90
26947;DHT22;14501;52.282;10.560;2022-11-27T16:16:17;6.70;99.90
26947;DHT22;14501;52.282;10.560;2022-11-27T16:18:42;6.30;99.90
26947;DHT22;14501;52.282;10.560;2022-11-27T16:21:10;6.40;99.90
26947;DHT22;14501;52.282;10.560;2022-11-27T16:23:37;6.40;99.90
26947;DHT22;14501;52.282;10.560;2022-11-27T16:26:03;6.40;99.90
26947;DHT22;14501;52.282;10.560;2022-11-27T16:28:30;6.40;99.90
26947;DHT22;14501;52.282;10.560;2022-11-27T16:30:58;6.60;99.90
26947;DHT22;14501;52.282;10.560;2022-11-27T16:33:28;6.40;99.90
26947;DHT22;14501;52.282;10.560;2022-11-27T16:35:54;6.30;99.90
26947;DHT22;14501;52.282;10.560;2022-11-27T16:38:20;6.30;99.90
26947;DHT22;14501;52.282;10.560;2022-11-27T16:40:47;6.30;99.90
26947;DHT22;14501;52.282;10.560;2022-11-27T16:43:13;6.30;99.90
26947;DHT22;14501;52.282;10.560;2022-11-27T16:45:39;8.10;99.90
26947;DHT22;14501;52.282;10.560;2022-11-27T16:48:05;6.30;99.90
26947;DHT22;14501;52.282;10.560;2022-11-27T16:50:31;6.40;99.90
26947;DHT22;14501;52.282;10.560;2022-11-27T16:52:57;6.70;99.90
26947;DHT22;14501;52.282;10.560;2022-11-27T16:55:23;7.90;99.90
26947;DHT22;14501;52.282;10.560;2022-11-27T16:57:49;6.60;99.90
26947;DHT22;14501;52.282;10.560;2022-11-27T17:00:15;6.40;99.90
26947;DHT22;14501;52.282;10.560;2022-11-27T17:02:41;6.40;99.90
26947;DHT22;14501;52.282;10.560;2022-11-27T17:05:07;6.40;99.90
26947;DHT22;14501;52.282;10.560;2022-11-27T17:07:32;6.40;99.90
26947;DHT22;14501;52.282;10.560;2022-11-27T17:09:58;6.40;99.90
26947;DHT22;14501;52.282;10.560;2022-11-27T17:12:23;6.30;99.90
26947;DHT22;14501;52.282;10.560;2022-11-27T17:14:49;6.30;99.90
26947;DHT22;14501;52.282;10.560;2022-11-27T17:17:14;6.20;99.90
26947;DHT22;14501;52.282;10.560;2022-11-27T17:19:40;6.20;99.90
26947;DHT22;14501;52.282;10.560;2022-11-27T17:22:06;7.30;99.90
26947;DHT22;14501;52.282;10.560;2022-11-27T17:24:32;7.30;99.90
26947;DHT22;14501;52.282;10.560;2022-11-27T17:27:00;6.30;99.90
26947;DHT22;14501;52.282;10.560;2022-11-27T17:29:26;6.20;99.90
26947;DHT22;14501;52.282;10.560;2022-11-27T17:31:52;6.20;99.90
26947;DHT22;14501;52.282;10.560;2022-11-27T17:34:19;6.20;99.90
26947;DHT22;14501;52.282;10.560;2022-11-27T17:36:45;6.30;99.90